Vliegveldwaarnemingen Nederland - (AUTO) METAR

Luchtvaartmeteorologische informatie voor operationeel gebruik en vluchtvoorbereiding is beschikbaar op www.luchtvaartmeteo.nl.

ZCZC
SA130655 EHKD     DE KOOY/DE KOOY   NLD   1 m.
METAR EHKD 130655Z AUTO 29003KT 210V340 9999 NCD 15/09 Q1027
BLU NOSIG=

ZCZC
SA130655 EHFD     F3-FB-1   NLD   50 m.
METAR EHFD 130655Z AUTO /////KT 9999 NCD 14/10 Q1025=

ZCZC
SA130655 EHAM     AMSTERDAM/SCHIPHOL   NLD   -3 m.
METAR EHAM 130655Z 27003KT 200V350 9999 FEW020 16/11 Q1028 NOSIG=

ZCZC
SA130655 EHVL     VLIELAND   NLD   10 m.
METAR EHVL 130655Z AUTO 26007KT 9999 NCD 15/11 Q1027 BLU=

ZCZC
SA130655 EHJR     K13-A   NLD   37 m.
METAR EHJR 130655Z AUTO 24016KT //// // ///////// 13/09 Q1028 RE//
W12/H8=

ZCZC
SA130655 EHLE     LELYSTAD/LELYSTAD   NLD   -3 m.
METAR EHLE 130655Z AUTO VRB02KT 9999 NCD 16/09 Q1027 NOSIG=

ZCZC
SA130655 EHLW     LEEUWARDEN/LEEUWARDEN   NLD   1 m.
METAR EHLW 130655Z AUTO 26005KT 230V350 9999 FEW020 16/10 Q1027 BLU=

ZCZC
SA130655 EHDL     ARNHEM/DEELEN   NLD   48 m.
METAR EHDL 130655Z AUTO VRB02KT 9999 NCD 15/10 Q1028 BLU=

ZCZC
SA130655 EHGG     GRONINGEN/EELDE   NLD   5 m.
METAR EHGG 130655Z AUTO 29006KT 250V330 CAVOK 15/10 Q1027 NOSIG=

ZCZC
SA130655 EHSC     LICHTEILAND GOEREE   NLD   22 m.
METAR EHSC 130655Z AUTO VRB02KT 9999 ///////// 14/10 Q1028 W15/H6=

ZCZC
SA130655 EHSA     EURO PLATFORM   NLD   19 m.
METAR EHSA 130655Z AUTO 21003KT 9999 ///////// 15/10 Q1028 W14/H7=

ZCZC
SA130655 EHWO     WOENSDRECHT/WOENSDRECHT   NLD   19 m.
METAR EHWO 130655Z AUTO VRB02KT 9999 NCD 16/10 Q1028 BLU=

ZCZC
SA130655 EHRD     ROTTERDAM/THE HAGUE AIRPORT   NLD   -5 m.
METAR EHRD 130655Z AUTO VRB02KT 9999 NCD 16/11 Q1028 NOSIG=

ZCZC
SA130655 EHGR     GILZE-RIJEN/GILZE-RIJEN   NLD   14 m.
METAR EHGR 130655Z AUTO VRB02KT 9999 NCD 15/10 Q1028 BLU=

ZCZC
SA130655 EHEH     EINDHOVEN/EINDHOVEN   NLD   22 m.
METAR EHEH 130655Z AUTO VRB03KT 9999 NCD 16/10 Q1028
BLU NOSIG=

ZCZC
SA130655 EHVK     VOLKEL/VOLKEL   NLD   21 m.
METAR EHVK 130655Z AUTO VRB02KT 9999 NCD 15/11 Q1028 BLU=

ZCZC
SA130655 EHBK     MAASTRICHT/MAASTRICHT-AACHEN   NLD   114 m.
METAR EHBK 130655Z AUTO 09004KT 040V140 9999 FEW028 15/10 Q1028
NOSIG=

ZCZC
SA130655 EHFZ     F16-A   NLD   43 m.
METAR EHFZ 130655Z NIL=

ZCZC
SA130655 EHKV     K14-FA-1C   NLD   41 m.
METAR EHKV 130655Z AUTO 27013KT 9999 NCD 13/10 Q1027=

ZCZC
SA130655 EHMG     L9-FF-1   NLD   44 m.
METAR EHMG 130655Z AUTO 25008KT 9999 NCD 14/10 Q1028=

ZCZC
SA130655 EHMA     AWG-1   NLD   40 m.
METAR EHMA 130655Z AUTO 30009KT 9999 NCD 14/10 Q1027=

ZCZC
SA130655 EHDV     D15-FA-1   NLD   42 m.
METAR EHDV 130655Z AUTO 25013KT 180V310 9999 NCD 14/10 Q1026=

ZCZC
SA130655 EHAK     A12-CPP   NLD   48 m.
METAR EHAK 130655Z AUTO 25015KT 9999 NCD 14/12 Q1024=

ZCZC
SA130655 EHQE     HOORN-A   NLD   50 m.
METAR EHQE 130655Z AUTO 24007KT 9999 NCD 13/09 Q1028=

ZCZC
SA130655 EHJA     J6-A   NLD   45 m.
METAR EHJA 130655Z AUTO 15013KT 9999 NCD 13/11 Q1027=

ZCZC
SA130655 EHPG     P11-B   NLD   41 m.
METAR EHPG 130655Z AUTO 00000KT 9999 NCD 13/10 Q1028 RERA=

ZCZC
SA130655 EHHW     BUITENGAATS/BG-OHVS2      42 m.
METAR EHHW 130655Z AUTO 29008KT 9999 FEW015/// 14/10 Q1026=

ZCZC
SA130655 EHFS     VLISSINGEN AWS   NLD   8 m.
METAR EHFS 130655Z AUTO VRB02KT 9999 NCD 16/10 Q1028=

ZCZC
SA130655 EHSG     BSA   NLD   43 m.
METAR EHSG 130655Z AUTO 20005KT //// // NCD 15/09 Q1028 RE//=

13/06/2021 09.15 uur LT